createdAt,value
2023-03-19T00:01:08.801Z,76.40
2023-03-19T00:03:36.112Z,76.20
2023-03-19T00:06:02.876Z,76.00
2023-03-19T00:08:29.581Z,76.20
2023-03-19T00:10:56.452Z,76.10
2023-03-19T00:13:23.257Z,76.30
2023-03-19T00:15:50.412Z,76.50
2023-03-19T00:18:17.208Z,76.70
2023-03-19T00:20:43.893Z,76.80
2023-03-19T00:23:10.639Z,76.80
2023-03-19T00:25:37.418Z,77.00
2023-03-19T00:28:04.147Z,77.10
2023-03-19T00:30:30.892Z,77.10
2023-03-19T00:32:57.829Z,77.00
2023-03-19T00:35:24.699Z,77.20
2023-03-19T00:37:51.442Z,77.20
2023-03-19T00:40:18.289Z,77.20
2023-03-19T00:42:45.030Z,77.30
2023-03-19T00:45:14.987Z,77.30
2023-03-19T00:47:42.304Z,77.30
2023-03-19T00:50:09.633Z,77.40
2023-03-19T00:52:36.379Z,77.50
2023-03-19T00:55:03.310Z,77.50
2023-03-19T00:57:30.472Z,77.50
2023-03-19T00:59:57.312Z,77.40
2023-03-19T01:02:24.087Z,77.60
2023-03-19T01:04:51.029Z,77.60
2023-03-19T01:07:17.766Z,77.40
2023-03-19T01:09:44.532Z,77.70
2023-03-19T01:12:11.585Z,77.60
2023-03-19T01:14:38.315Z,77.70
2023-03-19T01:17:05.526Z,77.60
2023-03-19T01:19:32.583Z,77.60
2023-03-19T01:21:59.303Z,77.80
2023-03-19T01:24:29.116Z,77.80
2023-03-19T01:26:55.966Z,77.80
2023-03-19T01:29:22.836Z,77.90
2023-03-19T01:31:49.644Z,78.00
2023-03-19T01:34:16.531Z,77.80
2023-03-19T01:36:43.318Z,78.00
2023-03-19T01:39:10.762Z,78.00
2023-03-19T01:41:37.476Z,78.20
2023-03-19T01:44:22.861Z,78.00
2023-03-19T01:46:49.713Z,78.00
2023-03-19T01:49:18.385Z,78.10
2023-03-19T01:51:46.387Z,78.00
2023-03-19T01:54:15.488Z,78.10
2023-03-19T01:56:43.294Z,78.10
2023-03-19T01:59:16.193Z,78.30
2023-03-19T02:01:47.806Z,78.60
2023-03-19T02:04:14.792Z,78.50
2023-03-19T02:06:42.985Z,78.60
2023-03-19T02:09:09.881Z,78.80
2023-03-19T02:11:37.433Z,78.80
2023-03-19T02:14:04.219Z,79.00
2023-03-19T02:16:31.867Z,79.00
2023-03-19T02:18:59.131Z,79.00
2023-03-19T02:21:26.209Z,79.00
2023-03-19T02:24:16.949Z,79.00
2023-03-19T02:26:44.767Z,79.30
2023-03-19T02:29:11.613Z,79.30
2023-03-19T02:31:38.389Z,79.50
2023-03-19T02:34:07.970Z,79.70
2023-03-19T02:36:37.758Z,79.90
2023-03-19T02:39:07.418Z,80.10
2023-03-19T02:41:34.456Z,80.20
2023-03-19T02:44:02.542Z,80.30
2023-03-19T02:46:29.476Z,80.40
2023-03-19T02:48:56.287Z,80.50
2023-03-19T02:51:23.404Z,80.80
2023-03-19T02:53:50.415Z,80.70
2023-03-19T02:56:17.246Z,80.80
2023-03-19T02:58:43.940Z,80.80
2023-03-19T03:01:10.762Z,80.70
2023-03-19T03:03:37.571Z,81.00
2023-03-19T03:06:04.437Z,81.10
2023-03-19T03:08:31.230Z,81.40
2023-03-19T03:10:57.942Z,81.60
2023-03-19T03:13:24.681Z,81.60
2023-03-19T03:15:51.697Z,81.70
2023-03-19T03:18:19.396Z,81.80
2023-03-19T03:20:46.874Z,82.00
2023-03-19T03:23:13.643Z,82.20
2023-03-19T03:25:40.612Z,82.50
2023-03-19T03:28:07.695Z,82.70
2023-03-19T03:30:34.552Z,82.80
2023-03-19T03:33:02.082Z,82.70
2023-03-19T03:35:28.880Z,83.00
2023-03-19T03:37:55.745Z,83.10
2023-03-19T03:40:22.449Z,83.00
2023-03-19T03:42:49.118Z,83.10
2023-03-19T03:45:15.945Z,83.00
2023-03-19T03:47:42.725Z,83.00
2023-03-19T03:50:11.100Z,82.90
2023-03-19T03:52:38.286Z,82.80
2023-03-19T03:55:05.347Z,82.90
2023-03-19T03:57:32.168Z,82.90
2023-03-19T03:59:58.929Z,83.00
2023-03-19T04:02:26.137Z,82.90
2023-03-19T04:04:53.987Z,83.00
2023-03-19T04:07:20.883Z,83.20
2023-03-19T04:09:47.665Z,83.20
2023-03-19T04:12:14.473Z,83.20
2023-03-19T04:14:41.249Z,83.50
2023-03-19T04:17:08.164Z,83.30
2023-03-19T04:19:34.991Z,83.50
2023-03-19T04:22:03.499Z,83.50
2023-03-19T04:24:30.730Z,83.50
2023-03-19T04:26:57.461Z,83.40
2023-03-19T04:29:24.347Z,83.50
2023-03-19T04:31:51.279Z,83.50
2023-03-19T04:34:18.156Z,83.40
2023-03-19T04:36:44.918Z,83.70
2023-03-19T04:39:11.687Z,84.10
2023-03-19T04:41:38.683Z,84.10
2023-03-19T04:44:05.940Z,83.70
2023-03-19T04:46:32.762Z,83.80
2023-03-19T04:48:59.913Z,83.60
2023-03-19T04:51:26.817Z,83.70
2023-03-19T04:53:53.621Z,83.80
2023-03-19T04:56:21.020Z,83.90
2023-03-19T04:58:47.757Z,83.60
2023-03-19T05:01:14.509Z,82.90
2023-03-19T05:03:41.327Z,81.90
2023-03-19T05:06:08.796Z,82.00
2023-03-19T05:08:35.914Z,82.30
2023-03-19T05:11:02.742Z,82.70
2023-03-19T05:13:29.589Z,83.00
2023-03-19T05:15:56.684Z,83.00
2023-03-19T05:18:23.557Z,83.10
2023-03-19T05:20:50.294Z,83.30
2023-03-19T05:23:18.015Z,83.30
2023-03-19T05:25:44.792Z,83.20
2023-03-19T05:28:11.632Z,83.00
2023-03-19T05:30:38.457Z,83.10
2023-03-19T05:33:05.730Z,82.80
2023-03-19T05:35:32.942Z,82.80
2023-03-19T05:38:00.262Z,82.80
2023-03-19T05:40:27.205Z,82.70
2023-03-19T05:42:54.001Z,82.50
2023-03-19T05:45:20.777Z,82.30
2023-03-19T05:47:49.117Z,82.10
2023-03-19T05:50:17.096Z,82.20
2023-03-19T05:52:43.806Z,82.10
2023-03-19T05:55:11.221Z,81.50
2023-03-19T05:57:38.209Z,81.80
2023-03-19T06:00:06.734Z,81.80
2023-03-19T06:02:33.903Z,81.60
2023-03-19T06:05:00.910Z,81.60
2023-03-19T06:07:27.863Z,81.80
2023-03-19T06:09:54.720Z,81.50
2023-03-19T06:12:21.998Z,81.20
2023-03-19T06:14:48.779Z,81.10
2023-03-19T06:17:15.979Z,80.90
2023-03-19T06:19:42.776Z,80.70
2023-03-19T06:22:09.820Z,80.50
2023-03-19T06:24:38.102Z,80.30
2023-03-19T06:27:04.887Z,80.20
2023-03-19T06:29:31.663Z,80.30
2023-03-19T06:31:58.524Z,80.10
2023-03-19T06:34:25.600Z,79.70
2023-03-19T06:36:53.889Z,79.00
2023-03-19T06:39:21.313Z,78.70
2023-03-19T06:41:48.144Z,77.70
2023-03-19T06:44:15.013Z,77.50
2023-03-19T06:46:41.792Z,77.30
2023-03-19T06:49:08.545Z,77.50
2023-03-19T06:51:35.799Z,78.00
2023-03-19T06:54:03.958Z,78.10
2023-03-19T06:56:30.828Z,77.60
2023-03-19T06:58:57.674Z,77.10
2023-03-19T07:01:25.301Z,77.10
2023-03-19T07:03:52.259Z,77.70
2023-03-19T07:06:19.114Z,77.60
2023-03-19T07:08:46.370Z,77.70
2023-03-19T07:11:13.624Z,77.50
2023-03-19T07:13:40.419Z,76.90
2023-03-19T07:16:07.514Z,76.40
2023-03-19T07:18:34.444Z,76.20
2023-03-19T07:21:01.270Z,76.40
2023-03-19T07:23:27.992Z,76.20
2023-03-19T07:25:55.052Z,75.50
2023-03-19T07:28:21.939Z,75.40
2023-03-19T07:30:48.775Z,75.30
2023-03-19T07:33:15.525Z,75.90
2023-03-19T07:35:42.406Z,76.10
2023-03-19T07:38:09.141Z,76.00
2023-03-19T07:40:36.194Z,75.60
2023-03-19T07:43:03.922Z,75.80
2023-03-19T07:45:30.701Z,75.80
2023-03-19T07:47:57.554Z,75.90
2023-03-19T07:50:24.292Z,75.70
2023-03-19T07:52:51.661Z,75.70
2023-03-19T07:55:18.427Z,75.90
2023-03-19T07:57:45.243Z,76.30
2023-03-19T08:00:13.069Z,76.30
2023-03-19T08:02:40.104Z,76.20
2023-03-19T08:05:06.975Z,76.50
2023-03-19T08:07:33.729Z,76.60
2023-03-19T08:10:00.597Z,76.70
2023-03-19T08:12:27.450Z,76.50
2023-03-19T08:14:55.273Z,76.30
2023-03-19T08:17:22.088Z,76.00
2023-03-19T08:19:48.936Z,75.70
2023-03-19T08:22:15.698Z,75.50
2023-03-19T08:24:42.464Z,75.40
2023-03-19T08:27:09.305Z,75.20
2023-03-19T08:29:36.746Z,75.40
2023-03-19T08:32:03.900Z,75.00
2023-03-19T08:34:31.014Z,75.30
2023-03-19T08:36:58.108Z,75.30
2023-03-19T08:39:25.368Z,75.20
2023-03-19T08:41:52.121Z,75.10
2023-03-19T08:44:19.081Z,75.40
2023-03-19T08:46:46.176Z,75.40
2023-03-19T08:49:13.042Z,75.80
2023-03-19T08:51:41.109Z,75.60
2023-03-19T08:54:07.820Z,76.40
2023-03-19T08:56:34.555Z,76.30
2023-03-19T08:59:01.736Z,76.10
2023-03-19T09:01:28.573Z,76.30
2023-03-19T09:03:55.640Z,76.50
2023-03-19T09:06:22.441Z,76.30
2023-03-19T09:08:49.176Z,76.30
2023-03-19T09:11:17.452Z,76.10
2023-03-19T09:13:44.520Z,75.80
2023-03-19T09:16:12.402Z,76.30
2023-03-19T09:18:39.231Z,76.40
2023-03-19T09:21:06.064Z,76.70
2023-03-19T09:23:32.849Z,77.00
2023-03-19T09:25:59.667Z,76.80
2023-03-19T09:28:26.523Z,76.60
2023-03-19T09:30:53.587Z,76.20
2023-03-19T09:33:21.667Z,76.40
2023-03-19T09:35:55.416Z,76.10
2023-03-19T09:38:22.461Z,76.10
2023-03-19T09:40:54.907Z,76.00
2023-03-19T09:43:45.486Z,76.10
2023-03-19T09:46:15.542Z,75.90
2023-03-19T09:48:47.087Z,76.00
2023-03-19T09:51:28.220Z,76.20
2023-03-19T09:54:05.048Z,75.90
2023-03-19T09:56:32.772Z,75.90
2023-03-19T09:58:59.990Z,75.70
2023-03-19T10:01:28.782Z,76.20
2023-03-19T10:03:58.637Z,76.20
2023-03-19T10:06:25.446Z,76.50
2023-03-19T10:09:04.392Z,76.80
2023-03-19T10:11:57.830Z,77.00
2023-03-19T10:14:27.373Z,76.90
2023-03-19T10:16:55.707Z,77.10
2023-03-19T10:19:24.700Z,79.70
2023-03-19T10:21:57.458Z,79.30
2023-03-19T10:24:31.877Z,79.80
2023-03-19T10:27:00.666Z,80.10
2023-03-19T10:29:28.469Z,80.80
2023-03-19T10:32:07.652Z,80.50
2023-03-19T10:34:36.102Z,80.70
2023-03-19T10:37:16.968Z,81.10
2023-03-19T10:39:44.633Z,81.00
2023-03-19T10:42:20.486Z,81.10
2023-03-19T10:44:56.230Z,81.00
2023-03-19T10:47:25.497Z,81.00
2023-03-19T10:49:52.561Z,80.60
2023-03-19T10:52:22.289Z,80.30
2023-03-19T10:54:55.271Z,80.60
2023-03-19T10:57:23.777Z,80.80
2023-03-19T10:59:50.522Z,80.60
2023-03-19T11:02:19.393Z,80.40
2023-03-19T11:04:46.840Z,80.40
2023-03-19T11:07:14.931Z,80.40
2023-03-19T11:09:44.325Z,80.50
2023-03-19T11:12:14.220Z,80.90
2023-03-19T11:14:43.883Z,80.70
2023-03-19T11:17:23.979Z,80.50
2023-03-19T11:19:58.173Z,80.50
2023-03-19T11:22:26.112Z,80.20
2023-03-19T11:24:54.307Z,79.70
2023-03-19T11:27:27.193Z,79.50
2023-03-19T11:29:54.195Z,79.50
2023-03-19T11:32:22.538Z,79.40
2023-03-19T11:34:53.956Z,79.10
2023-03-19T11:37:20.776Z,79.50
2023-03-19T11:40:10.782Z,78.30
2023-03-19T11:42:49.851Z,78.80
2023-03-19T11:45:26.294Z,78.30
2023-03-19T11:48:08.299Z,77.80
2023-03-19T11:50:50.911Z,77.80
2023-03-19T11:53:47.240Z,77.60
2023-03-19T11:56:38.173Z,77.60
2023-03-19T11:59:43.785Z,77.60
2023-03-19T12:02:13.643Z,77.70
2023-03-19T12:04:54.549Z,77.80
2023-03-19T12:07:41.189Z,78.00
2023-03-19T12:10:26.554Z,77.70
2023-03-19T12:12:56.626Z,77.90
2023-03-19T12:15:49.777Z,77.40
2023-03-19T12:18:35.623Z,77.50
2023-03-19T12:21:05.314Z,77.90
2023-03-19T12:23:51.409Z,77.70
2023-03-19T12:26:47.572Z,77.70
2023-03-19T12:29:24.385Z,77.70
2023-03-19T12:31:51.273Z,77.30
2023-03-19T12:34:48.088Z,77.30
2023-03-19T12:37:41.584Z,77.00
2023-03-19T12:40:20.456Z,77.00
2023-03-19T12:42:47.395Z,77.00
2023-03-19T12:45:25.343Z,76.70
2023-03-19T12:47:54.102Z,76.60
2023-03-19T12:50:21.727Z,76.80
2023-03-19T12:52:53.736Z,76.70
2023-03-19T12:55:37.568Z,76.80
2023-03-19T12:58:08.813Z,77.10
2023-03-19T13:00:38.651Z,77.30
2023-03-19T13:03:05.474Z,77.50
2023-03-19T13:05:39.208Z,77.20
2023-03-19T13:08:16.895Z,77.10
2023-03-19T13:10:43.654Z,77.10
2023-03-19T13:13:32.239Z,77.00
2023-03-19T13:16:04.318Z,77.40
2023-03-19T13:18:31.210Z,77.30
2023-03-19T13:20:58.110Z,77.10
2023-03-19T13:23:27.394Z,76.90
2023-03-19T13:25:56.709Z,76.60
2023-03-19T13:28:35.633Z,75.60
2023-03-19T13:31:04.561Z,75.90
2023-03-19T13:33:31.792Z,76.00
2023-03-19T13:36:02.256Z,75.60
2023-03-19T13:38:34.861Z,75.90
2023-03-19T13:41:02.196Z,76.00
2023-03-19T13:43:29.446Z,76.10
2023-03-19T13:46:05.718Z,76.30
2023-03-19T13:48:33.289Z,76.50
2023-03-19T13:51:01.936Z,76.40
2023-03-19T13:53:32.501Z,76.20
2023-03-19T13:56:00.144Z,75.80
2023-03-19T13:58:46.771Z,75.60
2023-03-19T14:01:28.662Z,75.80
2023-03-19T14:03:58.709Z,75.70
2023-03-19T14:06:38.833Z,75.90
2023-03-19T14:09:06.897Z,75.80
2023-03-19T14:11:35.274Z,76.00
2023-03-19T14:14:07.306Z,75.80
2023-03-19T14:16:36.348Z,76.00
2023-03-19T14:19:05.092Z,76.30
2023-03-19T14:21:34.028Z,76.60
2023-03-19T14:24:52.402Z,76.70
2023-03-19T14:27:18.493Z,77.00
2023-03-19T14:29:46.168Z,77.10
2023-03-19T14:32:17.940Z,77.00
2023-03-19T14:34:45.827Z,77.10
2023-03-19T14:37:25.691Z,77.10
2023-03-19T14:40:02.751Z,77.10
2023-03-19T14:42:42.754Z,77.20
2023-03-19T14:45:28.497Z,77.30
2023-03-19T14:48:15.528Z,77.20
2023-03-19T14:50:50.782Z,77.50
2023-03-19T14:53:19.391Z,77.20
2023-03-19T14:55:50.915Z,77.40
2023-03-19T14:58:19.819Z,77.80
2023-03-19T15:00:48.558Z,77.70
2023-03-19T15:03:24.649Z,78.00
2023-03-19T15:05:56.978Z,77.90
2023-03-19T15:08:24.503Z,77.90
2023-03-19T15:10:51.229Z,78.00
2023-03-19T15:13:35.613Z,78.00
2023-03-19T15:16:21.413Z,78.00
2023-03-19T15:18:48.943Z,77.80
2023-03-19T15:21:17.086Z,77.90
2023-03-19T15:23:46.276Z,77.70
2023-03-19T15:26:13.596Z,78.00
2023-03-19T15:28:49.396Z,77.60
2023-03-19T15:31:30.936Z,77.50
2023-03-19T15:34:00.339Z,77.60
2023-03-19T15:36:31.370Z,77.60
2023-03-19T15:39:01.568Z,77.60
2023-03-19T15:41:31.163Z,77.60
2023-03-19T15:43:58.887Z,77.70
2023-03-19T15:46:29.991Z,78.00
2023-03-19T15:49:05.652Z,78.00
2023-03-19T15:51:33.253Z,77.90
2023-03-19T15:54:00.588Z,77.90
2023-03-19T15:56:27.808Z,77.70
2023-03-19T15:58:57.139Z,77.70
2023-03-19T16:01:24.328Z,78.00
2023-03-19T16:03:57.310Z,78.00
2023-03-19T16:06:31.726Z,77.90
2023-03-19T16:09:15.607Z,78.00
2023-03-19T16:11:42.800Z,78.00
2023-03-19T16:14:11.367Z,78.00
2023-03-19T16:16:39.663Z,78.30
2023-03-19T16:19:06.801Z,78.30
2023-03-19T16:21:34.433Z,78.10
2023-03-19T16:24:04.720Z,78.30
2023-03-19T16:26:37.487Z,78.50
2023-03-19T16:29:18.035Z,78.50
2023-03-19T16:31:46.093Z,78.50
2023-03-19T16:34:23.025Z,78.50
2023-03-19T16:36:49.808Z,78.60
2023-03-19T16:39:26.092Z,78.40
2023-03-19T16:42:16.284Z,78.40
2023-03-19T16:44:44.505Z,78.70
2023-03-19T16:47:14.477Z,78.60
2023-03-19T16:49:41.502Z,78.60
2023-03-19T16:52:14.706Z,78.70
2023-03-19T16:54:41.666Z,78.70
2023-03-19T16:57:10.430Z,78.70
2023-03-19T16:59:37.541Z,78.60
2023-03-19T17:02:10.755Z,78.60
2023-03-19T17:04:37.724Z,78.80
2023-03-19T17:07:04.807Z,78.60
2023-03-19T17:09:31.790Z,78.70
2023-03-19T17:11:59.205Z,78.70
2023-03-19T17:14:25.949Z,78.70
2023-03-19T17:16:54.428Z,78.60
2023-03-19T17:19:25.691Z,78.70
2023-03-19T17:21:54.830Z,78.90
2023-03-19T17:24:24.751Z,79.00
2023-03-19T17:26:52.003Z,79.00
2023-03-19T17:29:20.903Z,78.80
2023-03-19T17:31:48.492Z,78.80
2023-03-19T17:34:20.294Z,78.80
2023-03-19T17:36:57.450Z,78.70
2023-03-19T17:39:24.967Z,78.80
2023-03-19T17:41:53.887Z,78.70
2023-03-19T17:44:21.026Z,79.00
2023-03-19T17:46:49.929Z,79.00
2023-03-19T17:49:24.214Z,79.00
2023-03-19T17:51:51.196Z,79.00
2023-03-19T17:54:18.099Z,79.20
2023-03-19T17:56:44.968Z,79.20
2023-03-19T17:59:12.056Z,79.30
2023-03-19T18:01:40.271Z,79.20
2023-03-19T18:04:07.419Z,79.20
2023-03-19T18:06:36.098Z,79.20
2023-03-19T18:09:03.049Z,79.20
2023-03-19T18:11:29.921Z,79.30
2023-03-19T18:13:56.767Z,79.30
2023-03-19T18:16:25.968Z,79.40
2023-03-19T18:18:52.811Z,79.40
2023-03-19T18:21:19.711Z,79.50
2023-03-19T18:23:46.888Z,79.50
2023-03-19T18:26:14.133Z,79.50
2023-03-19T18:28:41.098Z,79.60
2023-03-19T18:31:18.311Z,79.70
2023-03-19T18:33:46.277Z,79.90
2023-03-19T18:36:17.290Z,80.30
2023-03-19T18:38:44.050Z,80.50
2023-03-19T18:41:16.777Z,80.70
2023-03-19T18:43:43.573Z,80.80
2023-03-19T18:46:13.598Z,81.00
2023-03-19T18:48:40.933Z,81.20
2023-03-19T18:51:09.823Z,81.40
2023-03-19T18:53:36.561Z,81.60
2023-03-19T18:56:07.807Z,81.90
2023-03-19T18:58:34.967Z,82.10
2023-03-19T19:01:04.417Z,82.20
2023-03-19T19:03:31.855Z,82.30
2023-03-19T19:05:58.654Z,82.60
2023-03-19T19:08:27.022Z,82.70
2023-03-19T19:10:55.649Z,82.80
2023-03-19T19:13:25.010Z,82.80
2023-03-19T19:15:52.523Z,82.90
2023-03-19T19:18:19.385Z,83.20
2023-03-19T19:20:51.365Z,83.20
2023-03-19T19:23:18.525Z,83.30
2023-03-19T19:25:46.582Z,83.50
2023-03-19T19:28:45.869Z,83.50
2023-03-19T19:31:20.644Z,83.70
2023-03-19T19:33:47.426Z,84.00
2023-03-19T19:36:14.221Z,84.10
2023-03-19T19:38:41.034Z,84.10
2023-03-19T19:41:10.668Z,84.00
2023-03-19T19:43:38.252Z,84.00
2023-03-19T19:46:05.222Z,84.10
2023-03-19T19:48:31.994Z,84.10
2023-03-19T19:50:58.932Z,84.30
2023-03-19T19:53:26.313Z,84.50
2023-03-19T19:55:53.296Z,84.70
2023-03-19T19:58:21.946Z,84.70
2023-03-19T20:01:02.369Z,84.70
2023-03-19T20:03:31.520Z,84.90
2023-03-19T20:05:59.063Z,84.80
2023-03-19T20:08:29.242Z,85.00
2023-03-19T20:10:56.418Z,84.70
2023-03-19T20:13:30.722Z,84.60
2023-03-19T20:15:58.626Z,84.60
2023-03-19T20:18:30.782Z,84.30
2023-03-19T20:20:58.310Z,84.20
2023-03-19T20:23:26.717Z,84.10
2023-03-19T20:25:53.758Z,84.00
2023-03-19T20:28:30.550Z,84.00
2023-03-19T20:30:57.416Z,83.80
2023-03-19T20:33:24.442Z,83.80
2023-03-19T20:35:51.675Z,83.80
2023-03-19T20:38:18.610Z,83.70
2023-03-19T20:40:55.706Z,83.70
2023-03-19T20:43:22.535Z,83.60
2023-03-19T20:45:49.777Z,83.70
2023-03-19T20:48:16.789Z,84.10
2023-03-19T20:50:44.512Z,84.40
2023-03-19T20:53:11.350Z,84.50
2023-03-19T20:55:38.914Z,84.70
2023-03-19T20:58:13.277Z,84.80
2023-03-19T21:00:40.052Z,85.10
2023-03-19T21:03:11.764Z,85.10
2023-03-19T21:05:41.118Z,85.20
2023-03-19T21:08:24.400Z,85.20
2023-03-19T21:10:53.112Z,85.00
2023-03-19T21:13:19.989Z,84.90
2023-03-19T21:15:47.100Z,84.80
2023-03-19T21:18:13.900Z,84.70
2023-03-19T21:20:42.556Z,84.60
2023-03-19T21:23:16.075Z,84.80
2023-03-19T21:25:43.729Z,85.00
2023-03-19T21:28:29.999Z,84.90
2023-03-19T21:30:57.785Z,85.00
2023-03-19T21:33:26.360Z,84.80
2023-03-19T21:35:53.890Z,84.70
2023-03-19T21:38:20.902Z,84.60
2023-03-19T21:40:48.277Z,84.50
2023-03-19T21:43:27.930Z,84.60
2023-03-19T21:45:54.941Z,84.60
2023-03-19T21:48:32.102Z,84.50
2023-03-19T21:50:59.814Z,84.40
2023-03-19T21:53:26.967Z,84.60
2023-03-19T21:55:54.326Z,84.60
2023-03-19T21:58:32.219Z,84.60
2023-03-19T22:00:59.622Z,84.50
2023-03-19T22:03:27.544Z,84.30
2023-03-19T22:05:54.665Z,84.30
2023-03-19T22:08:22.744Z,84.30
2023-03-19T22:10:56.883Z,84.40
2023-03-19T22:13:26.072Z,84.30
2023-03-19T22:15:53.558Z,84.60
2023-03-19T22:18:20.524Z,84.50
2023-03-19T22:20:48.416Z,84.50
2023-03-19T22:23:15.184Z,84.50
2023-03-19T22:25:44.250Z,84.40
2023-03-19T22:28:37.335Z,84.30
2023-03-19T22:31:04.280Z,84.30
2023-03-19T22:33:31.601Z,84.40
2023-03-19T22:35:58.449Z,84.30
2023-03-19T22:38:25.183Z,84.40
2023-03-19T22:40:54.363Z,84.30
2023-03-19T22:43:27.896Z,84.60
2023-03-19T22:46:15.028Z,84.50
2023-03-19T22:48:43.298Z,84.50
2023-03-19T22:51:11.270Z,84.50
2023-03-19T22:53:37.977Z,84.50
2023-03-19T22:56:04.842Z,84.50
2023-03-19T22:58:31.660Z,84.30
2023-03-19T23:00:58.611Z,84.20
2023-03-19T23:03:26.521Z,84.20
2023-03-19T23:05:54.988Z,84.30
2023-03-19T23:08:22.790Z,84.30
2023-03-19T23:10:51.240Z,84.20
2023-03-19T23:13:17.980Z,84.30
2023-03-19T23:15:45.261Z,84.20
2023-03-19T23:18:19.467Z,84.20
2023-03-19T23:20:48.373Z,84.10
2023-03-19T23:23:16.748Z,84.10
2023-03-19T23:25:46.654Z,84.00
2023-03-19T23:28:23.905Z,84.10
2023-03-19T23:30:51.516Z,84.10
2023-03-19T23:33:19.377Z,84.20
2023-03-19T23:35:47.661Z,84.10
2023-03-19T23:38:16.292Z,84.00
2023-03-19T23:40:46.400Z,84.10
2023-03-19T23:43:16.815Z,83.90
2023-03-19T23:45:44.656Z,83.70
2023-03-19T23:48:14.561Z,84.00
2023-03-19T23:50:41.695Z,84.00
2023-03-19T23:53:15.818Z,84.20
2023-03-19T23:55:42.561Z,84.00
2023-03-19T23:58:10.319Z,84.00
